Time;durP1;ratioP1;P1;durP2;ratioP2;P2;SDS_P1;SDS_P2;PMS_P1;PMS_P2;Temp;Humidity;BMP_temperature;BMP_pressure;BME280_temperature;BME280_humidity;BME280_pressure;Samples;Min_cycle;Max_cycle;Signal;HPM_P1;HPM_P2
2022/05/30 00:00:44;;;;;;;7.20;2.65;;;;;;;9.25;83.65;101269.09;5068973;28;20028;-66
2022/05/30 00:03:10;;;;;;;6.63;2.47;;;;;;;9.26;83.54;101273.41;5069528;28;20033;-66
2022/05/30 00:05:36;;;;;;;8.48;2.17;;;;;;;9.27;83.30;101271.56;5042978;28;20032;-66
2022/05/30 00:08:02;;;;;;;8.20;2.40;;;;;;;9.24;83.53;101267.44;5050164;28;20363;-65
2022/05/30 00:10:29;;;;;;;8.90;2.63;;;;;;;9.20;83.33;101261.66;5050111;28;20033;-65
2022/05/30 00:12:55;;;;;;;5.47;2.35;;;;;;;9.19;83.55;101265.28;5050173;28;20028;-66
2022/05/30 00:15:22;;;;;;;8.20;2.67;;;;;;;9.17;83.55;101259.34;5050086;28;20055;-66
2022/05/30 00:17:47;;;;;;;6.55;2.28;;;;;;;9.16;83.52;101256.84;5050026;28;20060;-72
2022/05/30 00:20:13;;;;;;;8.02;2.72;;;;;;;9.13;84.03;101254.56;5050010;28;20061;-71
2022/05/30 00:22:39;;;;;;;7.15;2.97;;;;;;;9.09;84.12;101254.09;5049960;28;20524;-71
2022/05/30 00:25:05;;;;;;;5.68;2.20;;;;;;;9.12;83.72;101253.72;5049929;28;20127;-71
2022/05/30 00:27:31;;;;;;;8.73;2.20;;;;;;;9.13;83.83;101259.88;5061075;28;20498;-71
2022/05/30 00:29:57;;;;;;;4.32;2.08;;;;;;;9.09;83.91;101238.13;5069074;28;20036;-71
2022/05/30 00:32:23;;;;;;;5.22;2.15;;;;;;;9.12;84.46;101248.41;5068947;28;20031;-71
2022/05/30 00:34:48;;;;;;;8.75;3.80;;;;;;;9.12;83.93;101252.91;5068321;28;20024;-71
2022/05/30 00:37:14;;;;;;;6.80;3.38;;;;;;;9.09;83.58;101245.25;5068797;28;20029;-71
2022/05/30 00:39:39;;;;;;;8.27;2.08;;;;;;;9.09;83.68;101253.22;5049496;28;20480;-71
2022/05/30 00:42:07;;;;;;;5.30;2.63;;;;;;;9.04;83.67;101255.59;5049706;28;20039;-71
2022/05/30 00:44:34;;;;;;;5.05;2.47;;;;;;;9.04;84.09;101250.28;5049623;28;20025;-71
2022/05/30 00:46:59;;;;;;;9.23;2.20;;;;;;;8.99;84.32;101253.50;5049686;28;20598;-71
2022/05/30 00:49:25;;;;;;;6.35;2.40;;;;;;;8.91;84.90;101235.75;5049498;28;20039;-71
2022/05/30 00:51:54;;;;;;;7.50;2.65;;;;;;;8.93;85.17;101248.84;5064202;28;20484;-71
2022/05/30 00:54:24;;;;;;;12.30;4.38;;;;;;;8.92;85.22;101252.53;5056550;28;20036;-72
2022/05/30 00:56:53;;;;;;;4.25;2.35;;;;;;;8.87;85.61;101242.41;5049014;28;20111;-71
2022/05/30 00:59:19;;;;;;;5.63;2.20;;;;;;;8.88;85.79;101248.56;5049285;28;20033;-71
2022/05/30 01:01:44;;;;;;;9.35;2.50;;;;;;;8.82;86.40;101247.44;5049075;28;20029;-71
2022/05/30 01:06:58;;;;;;;13.32;2.72;;;;;;;8.71;86.32;101245.16;5049415;28;20044;-71
2022/05/30 01:09:30;;;;;;;5.97;1.83;;;;;;;8.70;87.32;101248.84;5049382;28;20021;-71
2022/05/30 01:12:01;;;;;;;3.60;2.40;;;;;;;8.69;87.67;101252.47;5053300;28;20032;-71
2022/05/30 01:14:30;;;;;;;6.95;3.60;;;;;;;8.63;87.36;101239.91;5052606;28;20552;-71
2022/05/30 01:16:57;;;;;;;5.35;2.13;;;;;;;8.62;87.48;101252.38;5049122;28;20047;-71
2022/05/30 01:19:40;;;;;;;8.73;3.80;;;;;;;8.60;87.73;101241.06;5049372;28;20051;-71
2022/05/30 01:22:50;;;;;;;11.43;3.00;;;;;;;8.56;87.77;101245.88;5049345;28;20123;-71
2022/05/30 01:25:37;;;;;;;10.02;2.97;;;;;;;8.54;87.97;101244.41;5040105;28;20573;-71
2022/05/30 01:28:12;;;;;;;14.25;3.47;;;;;;;8.56;88.39;101251.22;5054558;28;20040;-70
2022/05/30 01:30:40;;;;;;;7.68;3.85;;;;;;;8.58;88.15;101247.56;5068427;28;20032;-71
2022/05/30 01:33:06;;;;;;;10.68;3.50;;;;;;;8.60;88.04;101235.75;5068405;28;20119;-71
2022/05/30 01:35:32;;;;;;;10.75;3.25;;;;;;;8.59;87.74;101238.56;5068301;28;20033;-71
2022/05/30 01:37:58;;;;;;;7.97;3.33;;;;;;;8.61;87.86;101236.56;5068245;28;20028;-71
2022/05/30 01:40:26;;;;;;;11.23;3.30;;;;;;;8.60;87.76;101234.94;5068275;28;20051;-71
2022/05/30 01:42:52;;;;;;;10.68;3.40;;;;;;;8.55;87.96;101228.28;5068166;28;20032;-71
2022/05/30 01:45:18;;;;;;;8.75;3.20;;;;;;;8.45;88.46;101218.88;5067869;28;20064;-71
2022/05/30 01:47:43;;;;;;;12.50;4.70;;;;;;;8.43;88.38;101229.66;5070480;28;20056;-71
2022/05/30 01:50:09;;;;;;;15.75;5.38;;;;;;;8.35;88.89;101225.19;5071348;28;20037;-71
2022/05/30 01:52:35;;;;;;;11.25;3.88;;;;;;;8.32;88.89;101222.88;5071719;28;20056;-71
2022/05/30 01:55:00;;;;;;;10.45;4.05;;;;;;;8.29;88.76;101217.09;5071750;28;20040;-71
2022/05/30 01:57:26;;;;;;;9.45;4.00;;;;;;;8.34;88.80;101225.38;5071757;28;20036;-71
2022/05/30 01:59:51;;;;;;;7.50;3.53;;;;;;;8.34;88.77;101226.19;5071226;28;20043;-71
2022/05/30 02:02:16;;;;;;;7.70;3.28;;;;;;;8.34;89.03;101223.53;5067267;28;20039;-71
2022/05/30 02:04:42;;;;;;;10.35;3.88;;;;;;;8.33;89.20;101221.03;5036773;28;20037;-71
2022/05/30 02:07:07;;;;;;;10.38;3.53;;;;;;;8.32;89.26;101225.53;5052904;28;20067;-71
2022/05/30 02:09:32;;;;;;;13.13;3.75;;;;;;;8.29;89.49;101223.22;5052674;28;20063;-71
2022/05/30 02:11:58;;;;;;;9.05;3.72;;;;;;;8.23;89.66;101218.63;5052550;28;20021;-71
2022/05/30 02:14:24;;;;;;;9.18;3.72;;;;;;;8.25;89.65;101221.94;5052459;28;20033;-71
2022/05/30 02:17:01;;;;;;;6.47;3.50;;;;;;;8.24;89.96;101220.25;5052353;28;20029;-71
2022/05/30 02:19:42;;;;;;;5.78;3.53;;;;;;;8.22;90.18;101219.59;5052067;28;20107;-71
2022/05/30 02:22:10;;;;;;;8.80;4.03;;;;;;;8.19;90.05;101222.59;5052443;28;20024;-70
2022/05/30 02:24:36;;;;;;;11.65;3.53;;;;;;;8.16;90.15;101222.94;5052254;28;20037;-71
2022/05/30 02:27:01;;;;;;;10.20;3.00;;;;;;;8.12;90.40;101229.59;5052279;28;20662;-71
2022/05/30 02:29:27;;;;;;;9.63;3.50;;;;;;;8.06;90.68;101227.63;5052234;28;20037;-73
2022/05/30 02:31:52;;;;;;;8.85;3.35;;;;;;;8.01;90.74;101219.34;5034080;28;20052;-71
2022/05/30 02:37:01;;;;;;;8.98;3.30;;;;;;;7.93;91.01;101222.03;5052029;28;20546;-71
2022/05/30 02:39:28;;;;;;;14.23;5.70;;;;;;;7.88;90.83;101222.53;5051499;28;20037;-71
2022/05/30 02:41:54;;;;;;;10.82;3.35;;;;;;;7.80;90.82;101220.72;5051344;28;20057;-71
2022/05/30 02:44:22;;;;;;;6.68;3.13;;;;;;;7.78;91.72;101220.09;5051073;28;20639;-71
2022/05/30 02:46:53;;;;;;;8.57;3.38;;;;;;;7.76;91.84;101222.06;5051876;28;20041;-71
2022/05/30 02:49:19;;;;;;;11.70;3.95;;;;;;;7.67;91.66;101205.31;5051753;28;20104;-71
2022/05/30 02:51:45;;;;;;;10.82;4.25;;;;;;;7.72;92.07;101223.38;5066758;28;20126;-71
2022/05/30 02:54:12;;;;;;;8.60;2.90;;;;;;;7.70;91.78;101225.38;5070835;28;20503;-71
2022/05/30 02:56:39;;;;;;;11.18;4.15;;;;;;;7.68;92.08;101214.13;5051187;28;20092;-71
2022/05/30 02:59:04;;;;;;;11.38;3.90;;;;;;;7.67;92.11;101220.41;5051147;28;20106;-71
2022/05/30 03:01:31;;;;;;;8.68;3.60;;;;;;;7.63;92.19;101208.50;5051159;28;20032;-70
2022/05/30 03:03:58;;;;;;;8.48;4.03;;;;;;;7.62;91.98;101220.94;5052741;28;20056;-70
2022/05/30 03:06:23;;;;;;;9.43;4.78;;;;;;;7.61;92.78;101221.09;5070150;28;20016;-71
2022/05/30 03:08:49;;;;;;;10.32;5.38;;;;;;;7.62;93.18;101220.09;5070560;28;20039;-71
2022/05/30 03:11:14;;;;;;;14.05;3.78;;;;;;;7.63;93.61;101219.09;5070559;28;20052;-70
2022/05/30 03:13:39;;;;;;;12.93;4.03;;;;;;;7.63;93.61;101222.59;5052235;28;20032;-70
2022/05/30 03:16:05;;;;;;;7.35;3.17;;;;;;;7.69;93.69;101219.25;5055267;28;20031;-71
2022/05/30 03:18:30;;;;;;;9.20;4.05;;;;;;;7.64;93.59;101210.97;5070253;28;20035;-70
2022/05/30 03:20:56;;;;;;;9.15;3.78;;;;;;;7.71;93.65;101224.41;5070306;28;20122;-71
2022/05/30 03:23:22;;;;;;;13.32;4.25;;;;;;;7.72;93.61;101226.06;5070422;28;20032;-70
2022/05/30 03:25:47;;;;;;;11.32;3.90;;;;;;;7.71;93.50;101220.94;5070010;28;20028;-71
2022/05/30 03:28:14;;;;;;;10.43;3.83;;;;;;;7.75;93.63;101220.41;5070294;28;20035;-71
2022/05/30 03:30:39;;;;;;;8.57;4.10;;;;;;;7.73;94.21;101234.84;5070063;28;20048;-70
2022/05/30 03:33:06;;;;;;;12.77;4.25;;;;;;;7.74;94.17;101231.19;5069588;28;20017;-71
2022/05/30 03:35:33;;;;;;;10.13;4.80;;;;;;;7.78;94.28;101236.00;5069400;28;20357;-71
2022/05/30 03:37:58;;;;;;;8.88;3.72;;;;;;;7.81;94.12;101226.88;5069575;28;20033;-71
2022/05/30 03:40:25;;;;;;;14.27;4.13;;;;;;;7.85;94.08;101222.88;5069764;28;20387;-70
2022/05/30 03:42:50;;;;;;;10.85;4.38;;;;;;;7.88;93.77;101223.34;5069749;28;20474;-70
2022/05/30 03:45:15;;;;;;;7.03;4.03;;;;;;;7.88;93.57;101227.84;5069675;28;20036;-70
2022/05/30 03:47:43;;;;;;;11.30;4.20;;;;;;;7.93;93.52;101230.00;5069876;28;20399;-71
2022/05/30 03:50:12;;;;;;;8.25;3.80;;;;;;;7.94;93.63;101237.81;5069695;28;20067;-71
2022/05/30 03:52:37;;;;;;;13.10;4.15;;;;;;;7.97;93.39;101232.16;5069571;28;20106;-71
2022/05/30 03:55:11;;;;;;;14.65;4.80;;;;;;;7.99;93.21;101239.94;5069454;28;20480;-71
2022/05/30 03:57:37;;;;;;;11.73;4.43;;;;;;;8.00;93.35;101237.13;5069515;28;20040;-71
2022/05/30 04:00:03;;;;;;;12.15;4.32;;;;;;;8.01;93.69;101237.94;5069534;28;20384;-70
2022/05/30 04:02:29;;;;;;;11.65;4.55;;;;;;;8.01;93.77;101237.94;5069255;28;20035;-71
2022/05/30 04:04:55;;;;;;;13.38;4.65;;;;;;;8.05;93.57;101234.78;5069137;28;20035;-71
2022/05/30 04:07:20;;;;;;;9.60;4.40;;;;;;;8.08;93.39;101230.94;5069194;28;20032;-71
2022/05/30 04:09:46;;;;;;;11.57;3.83;;;;;;;8.11;93.11;101220.81;5068281;28;20036;-71
2022/05/30 04:12:11;;;;;;;15.05;4.35;;;;;;;8.15;93.19;101225.75;5069691;28;20380;-71
2022/05/30 04:14:36;;;;;;;10.02;4.65;;;;;;;8.17;93.16;101227.25;5069228;28;20675;-71
2022/05/30 04:17:02;;;;;;;13.50;4.32;;;;;;;8.13;93.06;101218.81;5068946;28;20033;-71
2022/05/30 04:19:27;;;;;;;7.72;3.63;;;;;;;8.18;93.49;101222.78;5068688;28;20410;-71
2022/05/30 04:21:53;;;;;;;11.02;3.60;;;;;;;8.21;93.30;101225.94;5068621;28;20055;-71
2022/05/30 04:24:18;;;;;;;9.77;4.00;;;;;;;8.24;92.90;101222.91;5068611;28;20086;-71
2022/05/30 04:26:44;;;;;;;11.23;3.95;;;;;;;8.30;92.94;101224.88;5056799;28;21058;-71
2022/05/30 04:29:09;;;;;;;12.52;3.65;;;;;;;8.33;92.76;101229.88;5049877;28;20040;-70
2022/05/30 04:31:35;;;;;;;12.45;3.75;;;;;;;8.36;92.28;101226.03;5049799;28;21009;-71
2022/05/30 04:34:00;;;;;;;11.18;4.40;;;;;;;8.42;92.77;101224.56;5049850;28;20036;-71
2022/05/30 04:36:26;;;;;;;11.55;5.00;;;;;;;8.46;92.42;101220.53;5049651;28;20423;-71
2022/05/30 04:38:51;;;;;;;5.97;3.42;;;;;;;8.51;92.16;101220.84;5049531;28;20039;-71
2022/05/30 04:41:17;;;;;;;10.82;4.20;;;;;;;8.56;92.20;101218.47;5049520;28;20028;-71
2022/05/30 04:43:42;;;;;;;14.10;4.28;;;;;;;8.62;92.10;101228.44;5049422;28;20074;-72
2022/05/30 04:46:14;;;;;;;10.48;3.90;;;;;;;8.67;91.84;101230.56;5049671;28;20140;-71
2022/05/30 04:48:41;;;;;;;16.20;4.93;;;;;;;8.70;91.63;101228.38;5049724;28;20445;-71
2022/05/30 04:51:06;;;;;;;10.02;4.32;;;;;;;8.71;91.53;101232.69;5049378;28;20130;-71
2022/05/30 04:53:32;;;;;;;13.52;5.65;;;;;;;8.74;91.69;101231.53;5049628;28;20066;-71
2022/05/30 04:55:58;;;;;;;11.52;4.18;;;;;;;8.75;91.76;101226.03;5049409;28;20090;-71
2022/05/30 04:58:24;;;;;;;9.30;3.80;;;;;;;8.80;91.60;101232.66;5049468;28;20068;-71
2022/05/30 05:00:56;;;;;;;8.20;3.60;;;;;;;8.78;91.83;101233.66;5049587;28;20024;-71
2022/05/30 05:03:22;;;;;;;9.43;3.65;;;;;;;8.87;91.33;101241.59;5049526;28;20040;-71
2022/05/30 05:05:47;;;;;;;15.55;4.97;;;;;;;8.89;91.21;101248.38;5049034;28;20033;-71
2022/05/30 05:08:15;;;;;;;13.35;5.43;;;;;;;8.92;90.94;101247.22;5049207;28;20028;-70
2022/05/30 05:10:48;;;;;;;12.95;3.80;;;;;;;8.94;90.74;101248.69;5049217;28;20123;-71
2022/05/30 05:13:13;;;;;;;9.25;3.50;;;;;;;8.98;90.41;101249.97;5048965;28;20131;-71
2022/05/30 05:15:39;;;;;;;8.52;2.95;;;;;;;9.02;89.89;101253.13;5048860;28;20124;-71
2022/05/30 05:18:05;;;;;;;7.72;3.95;;;;;;;9.07;89.55;101256.09;5048805;28;20033;-71
2022/05/30 05:20:36;;;;;;;15.70;4.55;;;;;;;9.10;89.24;101254.91;5049540;28;20040;-71
2022/05/30 05:23:01;;;;;;;6.85;2.97;;;;;;;9.14;89.29;101248.22;5053272;28;20082;-65
2022/05/30 05:25:27;;;;;;;11.27;3.67;;;;;;;9.16;89.00;101241.72;5035401;28;20028;-65
2022/05/30 05:27:52;;;;;;;11.55;4.75;;;;;;;9.26;89.49;101252.13;5053150;28;20044;-65
2022/05/30 05:30:18;;;;;;;12.07;3.95;;;;;;;9.41;88.60;101260.16;5053023;28;20036;-65
2022/05/30 05:32:44;;;;;;;9.15;3.50;;;;;;;9.53;88.07;101253.38;5053067;28;20033;-65
2022/05/30 05:35:09;;;;;;;12.63;4.97;;;;;;;9.61;87.38;101255.16;5053095;28;20021;-65
2022/05/30 05:37:34;;;;;;;10.00;3.15;;;;;;;9.66;86.14;101252.78;5035152;28;20468;-65
2022/05/30 05:40:00;;;;;;;9.40;3.20;;;;;;;9.70;85.76;101253.25;5053145;28;20033;-65
2022/05/30 05:42:25;;;;;;;13.27;4.10;;;;;;;9.72;85.67;101249.41;5053138;28;20037;-65
2022/05/30 05:44:51;;;;;;;13.88;3.92;;;;;;;9.78;85.01;101256.66;5053022;28;20383;-65
2022/05/30 05:47:16;;;;;;;8.60;3.10;;;;;;;9.84;84.45;101266.59;5034992;28;20033;-65
2022/05/30 05:49:42;;;;;;;8.18;3.22;;;;;;;9.92;84.52;101263.03;5052805;28;20033;-65
2022/05/30 05:52:07;;;;;;;6.90;4.43;;;;;;;9.99;83.36;101266.63;5052630;28;20068;-65
2022/05/30 05:54:33;;;;;;;5.72;2.75;;;;;;;10.06;83.11;101272.88;5018357;28;20680;-65
2022/05/30 05:56:59;;;;;;;7.15;2.88;;;;;;;10.08;82.03;101270.84;5052409;28;20112;-65
2022/05/30 05:59:24;;;;;;;8.43;3.25;;;;;;;10.12;81.59;101275.81;5052797;28;20029;-65
2022/05/30 06:01:50;;;;;;;9.27;3.70;;;;;;;10.09;80.14;101274.34;5052548;28;20032;-65
2022/05/30 06:04:15;;;;;;;5.35;2.20;;;;;;;10.05;77.97;101275.72;5052522;28;20112;-66
2022/05/30 06:06:41;;;;;;;7.75;2.90;;;;;;;10.05;79.94;101270.38;5052198;28;20032;-65
2022/05/30 06:09:06;;;;;;;6.63;2.63;;;;;;;10.13;78.03;101272.97;5052054;28;20128;-65
2022/05/30 06:11:33;;;;;;;5.45;2.75;;;;;;;10.12;78.12;101275.81;5051919;28;20040;-65
2022/05/30 06:13:58;;;;;;;7.53;2.70;;;;;;;10.02;78.02;101279.56;5051783;28;20040;-65
2022/05/30 06:16:30;;;;;;;3.53;2.28;;;;;;;10.03;79.08;101275.06;5051719;28;20615;-65
2022/05/30 06:18:59;;;;;;;11.32;2.95;;;;;;;10.11;77.94;101280.31;5052213;28;20133;-65
2022/05/30 06:21:27;;;;;;;4.85;2.35;;;;;;;10.19;77.91;101274.06;5052359;28;20063;-65
2022/05/30 06:23:53;;;;;;;5.57;2.60;;;;;;;10.25;77.93;101271.50;5052304;28;20108;-65
2022/05/30 06:26:19;;;;;;;4.63;2.00;;;;;;;10.34;76.47;101279.44;5052141;28;20418;-65
2022/05/30 06:28:45;;;;;;;11.40;1.92;;;;;;;10.37;75.54;101279.06;5052076;28;20032;-65
2022/05/30 06:31:16;;;;;;;7.90;2.92;;;;;;;10.37;75.11;101274.53;5052038;28;20033;-65
2022/05/30 06:33:42;;;;;;;4.55;1.75;;;;;;;10.43;74.82;101284.50;5050925;28;20029;-65
2022/05/30 06:36:12;;;;;;;3.13;1.20;;;;;;;10.42;73.17;101277.50;5051839;28;20037;-65
2022/05/30 06:38:38;;;;;;;8.20;2.88;;;;;;;10.52;74.29;101283.38;5051943;28;20021;-65
2022/05/30 06:41:17;;;;;;;3.30;1.77;;;;;;;10.70;73.75;101292.81;5051938;28;20090;-65
2022/05/30 06:43:43;;;;;;;5.70;2.33;;;;;;;10.91;73.36;101284.88;5051951;28;20116;-65
2022/05/30 06:46:09;;;;;;;4.63;1.77;;;;;;;11.07;71.35;101285.66;5051666;28;20503;-65
2022/05/30 06:48:35;;;;;;;5.65;2.05;;;;;;;11.08;68.35;101281.94;5051713;28;20078;-65
2022/05/30 06:51:06;;;;;;;3.35;1.40;;;;;;;11.04;67.89;101281.53;5051630;28;20049;-65
2022/05/30 06:53:32;;;;;;;1.85;1.50;;;;;;;11.01;65.48;101287.25;5051354;28;20055;-65
2022/05/30 06:55:57;;;;;;;1.92;1.20;;;;;;;10.96;67.28;101293.13;5051318;28;20037;-65
2022/05/30 06:58:23;;;;;;;5.80;1.65;;;;;;;11.01;64.34;101291.75;5051491;28;20025;-65
2022/05/30 07:00:48;;;;;;;5.18;0.95;;;;;;;11.12;66.01;101292.06;5051551;28;20043;-65
2022/05/30 07:03:15;;;;;;;5.57;1.77;;;;;;;11.19;66.70;101300.16;5051512;28;20013;-65
2022/05/30 07:05:43;;;;;;;3.60;1.95;;;;;;;11.15;66.98;101293.53;5051268;28;20522;-65
2022/05/30 07:08:09;;;;;;;7.75;2.15;;;;;;;11.11;67.81;101295.78;5070274;28;20021;-65
2022/05/30 07:10:37;;;;;;;3.22;1.63;;;;;;;11.13;66.99;101292.91;5069845;28;20063;-65
2022/05/30 07:13:04;;;;;;;3.20;2.03;;;;;;;11.15;68.08;101290.88;5069787;28;20029;-65
2022/05/30 07:15:31;;;;;;;5.22;1.50;;;;;;;11.16;67.49;101297.84;5070246;28;20028;-65
2022/05/30 07:17:58;;;;;;;5.10;1.88;;;;;;;11.18;67.98;101299.31;5070297;28;20033;-65
2022/05/30 07:20:24;;;;;;;5.22;1.90;;;;;;;11.24;66.41;101295.09;5070404;28;20032;-65
2022/05/30 07:22:49;;;;;;;5.70;2.05;;;;;;;11.27;66.52;101293.88;5070102;28;20028;-65
2022/05/30 07:25:15;;;;;;;4.30;1.80;;;;;;;11.25;65.95;101294.06;5070210;28;20516;-65
2022/05/30 07:27:40;;;;;;;3.92;1.65;;;;;;;11.29;65.69;101302.50;5069995;28;20044;-65
2022/05/30 07:30:07;;;;;;;4.22;1.50;;;;;;;11.44;66.35;101297.94;5070205;28;20028;-70
2022/05/30 07:32:35;;;;;;;4.35;1.73;;;;;;;11.66;64.65;101303.25;5070032;28;20107;-69
2022/05/30 07:35:01;;;;;;;4.18;2.83;;;;;;;11.78;65.02;101299.88;5070071;28;20020;-70
2022/05/30 07:37:26;;;;;;;9.18;2.63;;;;;;;11.85;63.90;101299.94;5070014;28;20394;-70
2022/05/30 07:39:52;;;;;;;4.80;2.38;;;;;;;11.92;63.54;101295.50;5069875;28;20102;-69
2022/05/30 07:42:17;;;;;;;5.35;1.63;;;;;;;11.99;60.36;101301.69;5069750;28;20024;-73
2022/05/30 07:44:42;;;;;;;3.60;1.30;;;;;;;11.93;61.03;101299.00;5058292;28;20366;-73
2022/05/30 07:47:08;;;;;;;2.85;1.50;;;;;;;11.84;61.75;101291.09;5056075;28;20059;-73
2022/05/30 07:49:33;;;;;;;1.33;1.23;;;;;;;11.79;60.12;101293.53;5057163;28;20040;-73
2022/05/30 07:51:59;;;;;;;6.88;2.55;;;;;;;11.77;61.50;101294.72;5066079;28;20056;-70
2022/05/30 07:54:24;;;;;;;4.20;1.25;;;;;;;11.86;60.23;101290.91;5069654;28;20040;-70
2022/05/30 07:56:50;;;;;;;1.50;0.93;;;;;;;12.04;60.66;101288.56;5069557;28;20119;-70
2022/05/30 07:59:15;;;;;;;4.05;2.20;;;;;;;12.18;58.44;101281.50;5069758;28;20127;-70
2022/05/30 08:01:41;;;;;;;5.50;1.85;;;;;;;12.15;59.24;101279.19;5069363;28;20029;-70
2022/05/30 08:04:12;;;;;;;6.93;1.70;;;;;;;12.15;59.65;101281.03;5069453;28;20112;-70
2022/05/30 08:06:38;;;;;;;3.27;1.60;;;;;;;12.25;59.23;101278.84;5069515;28;20035;-71
2022/05/30 08:09:04;;;;;;;4.03;1.17;;;;;;;12.54;57.41;101285.78;5069393;28;20274;-70
2022/05/30 08:11:30;;;;;;;3.92;2.17;;;;;;;13.55;56.02;101285.84;5068611;28;20028;-70
2022/05/30 08:13:55;;;;;;;4.15;1.40;;;;;;;14.18;50.64;101284.56;5068689;28;20036;-71
2022/05/30 08:16:23;;;;;;;5.45;2.05;;;;;;;15.11;52.20;101282.34;5068644;28;20498;-71
2022/05/30 08:18:49;;;;;;;2.13;1.73;;;;;;;17.85;44.90;101275.50;5069218;28;20112;-70
2022/05/30 08:21:15;;;;;;;2.70;1.75;;;;;;;20.35;40.59;101281.09;5068711;28;20025;-72
2022/05/30 08:23:41;;;;;;;2.03;1.50;;;;;;;22.46;36.03;101268.31;5052281;28;20488;-70
2022/05/30 08:26:07;;;;;;;3.25;1.20;;;;;;;23.39;34.39;101272.84;5063427;28;20134;-71
2022/05/30 08:28:33;;;;;;;4.78;1.77;;;;;;;22.62;33.20;101272.72;5069072;28;20027;-72
2022/05/30 08:30:59;;;;;;;2.90;1.58;;;;;;;20.42;37.65;101278.22;5066207;28;20032;-72
2022/05/30 08:33:24;;;;;;;4.18;1.92;;;;;;;18.89;40.51;101273.88;5064797;28;20041;-71
2022/05/30 08:36:03;;;;;;;2.90;1.85;;;;;;;18.01;42.16;101281.25;5034318;28;20037;-71
2022/05/30 08:38:33;;;;;;;5.18;1.65;;;;;;;17.75;41.98;101284.13;5053269;28;20111;-69
2022/05/30 08:43:49;;;;;;;2.88;1.60;;;;;;;16.05;44.21;101282.47;5066424;28;20511;-72
2022/05/30 08:46:35;;;;;;;4.25;1.30;;;;;;;16.32;45.09;101287.56;5051105;28;20028;-71
2022/05/30 08:49:22;;;;;;;3.20;1.80;;;;;;;17.58;42.02;101283.19;5068896;28;20028;-71
2022/05/30 08:52:15;;;;;;;3.47;2.10;;;;;;;18.10;43.84;101290.59;5055256;28;20385;-70
2022/05/30 08:55:06;;;;;;;4.28;2.50;;;;;;;20.35;42.13;101281.91;5055213;28;20028;-68
2022/05/30 08:57:35;;;;;;;4.20;2.13;;;;;;;22.62;34.57;101282.78;5068046;28;20040;-71
2022/05/30 09:00:09;;;;;;;6.75;2.78;;;;;;;22.71;36.82;101278.44;5050765;28;20040;-71
2022/05/30 09:02:43;;;;;;;4.57;2.45;;;;;;;20.97;38.09;101288.91;5049515;28;20451;-71
2022/05/30 09:05:28;;;;;;;4.68;2.28;;;;;;;19.35;40.79;101290.94;5049589;28;20029;-71
2022/05/30 09:07:56;;;;;;;3.80;2.30;;;;;;;17.96;39.55;101292.72;5049364;28;20972;-71
2022/05/30 09:10:29;;;;;;;5.75;1.25;;;;;;;16.97;41.15;101295.91;5051863;28;20029;-71
2022/05/30 09:13:21;;;;;;;2.05;1.73;;;;;;;16.14;44.82;101291.09;5066771;28;20032;-71
2022/05/30 09:16:30;;;;;;;7.28;1.95;;;;;;;15.49;46.48;101302.97;5048969;28;20041;-71
2022/05/30 09:18:58;;;;;;;3.13;1.38;;;;;;;15.02;48.50;101297.09;5049309;28;20116;-71
2022/05/30 09:21:27;;;;;;;3.78;1.30;;;;;;;14.62;45.91;101293.78;5049431;28;20017;-71
2022/05/30 09:23:53;;;;;;;2.95;1.40;;;;;;;14.37;47.40;101301.66;5049418;28;20549;-71
2022/05/30 09:26:22;;;;;;;4.85;1.48;;;;;;;14.16;49.08;101297.38;5063488;28;20055;-71
2022/05/30 09:28:50;;;;;;;3.33;1.67;;;;;;;13.94;49.39;101299.47;5035549;28;20031;-71
2022/05/30 09:31:21;;;;;;;3.08;1.92;;;;;;;13.84;48.62;101294.53;5049274;28;20033;-71
2022/05/30 09:33:52;;;;;;;4.70;1.90;;;;;;;13.70;47.82;101303.59;5049236;28;20447;-71
2022/05/30 09:36:19;;;;;;;2.92;1.52;;;;;;;13.68;50.22;101289.59;5049276;28;20444;-71
2022/05/30 09:38:56;;;;;;;7.13;2.55;;;;;;;13.65;53.00;101290.81;5049191;28;20103;-71
2022/05/30 09:41:39;;;;;;;6.45;2.85;;;;;;;13.66;51.21;101299.69;5049354;28;20044;-71
2022/05/30 09:44:21;;;;;;;3.13;2.25;;;;;;;13.66;51.48;101299.69;5049073;28;20029;-71
2022/05/30 09:46:59;;;;;;;1.95;1.73;;;;;;;13.74;51.96;101304.84;5055942;28;20035;-71
2022/05/30 09:49:35;;;;;;;3.72;2.08;;;;;;;13.72;50.35;101296.97;5048425;28;20028;-71
2022/05/30 09:52:04;;;;;;;5.65;2.25;;;;;;;13.68;50.78;101301.13;5048710;28;20381;-71
2022/05/30 09:54:29;;;;;;;6.35;3.22;;;;;;;13.57;49.31;101304.41;5048953;28;20047;-71
2022/05/30 09:57:00;;;;;;;5.50;3.33;;;;;;;13.47;52.50;101296.78;5048955;28;20029;-71
2022/05/30 09:59:34;;;;;;;6.57;2.07;;;;;;;13.43;54.16;101306.25;5051942;28;20279;-71
2022/05/30 10:02:01;;;;;;;6.50;2.50;;;;;;;13.34;53.96;101307.47;5067441;28;20401;-71
2022/05/30 10:04:41;;;;;;;4.20;1.90;;;;;;;13.29;52.85;101304.59;5068191;28;20043;-71
2022/05/30 10:07:14;;;;;;;3.90;1.77;;;;;;;13.26;53.77;101311.19;5068336;28;20032;-72
2022/05/30 10:09:57;;;;;;;6.68;2.05;;;;;;;13.21;53.91;101300.22;5071646;28;20021;-72
2022/05/30 10:12:52;;;;;;;4.70;1.60;;;;;;;13.21;53.74;101310.09;5071652;28;20032;-71
2022/05/30 10:15:33;;;;;;;4.88;2.03;;;;;;;13.22;52.39;101303.72;5049253;28;20399;-71
2022/05/30 10:18:15;;;;;;;4.27;2.33;;;;;;;13.30;53.00;101296.34;5071063;28;20109;-71
2022/05/30 10:21:11;;;;;;;3.65;1.83;;;;;;;13.43;54.31;101308.94;5071180;28;20610;-71
2022/05/30 10:30:02;;;;;;;8.77;2.72;;;;;;;14.17;50.72;101294.50;5052612;28;20051;-71
2022/05/30 10:32:55;;;;;;;3.70;2.45;;;;;;;14.39;52.07;101300.41;5066607;28;20372;-71
2022/05/30 10:35:34;;;;;;;3.90;2.50;;;;;;;14.46;51.46;101292.31;5070974;28;20388;-71
2022/05/30 10:38:19;;;;;;;4.47;2.25;;;;;;;14.47;51.52;101305.53;5071030;28;20075;-71
2022/05/30 10:40:57;;;;;;;4.70;2.08;;;;;;;14.46;49.71;101305.75;5071072;28;20024;-71
2022/05/30 10:44:03;;;;;;;5.88;2.00;;;;;;;14.37;50.60;101309.69;5070060;28;20043;-71
2022/05/30 10:46:40;;;;;;;9.25;3.85;;;;;;;14.19;47.71;101300.44;5013484;28;20032;-71
2022/05/30 10:49:11;;;;;;;5.60;2.05;;;;;;;14.18;50.07;101301.50;5051955;28;20029;-71
2022/05/30 10:51:48;;;;;;;4.15;2.85;;;;;;;14.29;49.43;101302.69;5051789;28;20056;-71
2022/05/30 10:54:41;;;;;;;4.10;2.38;;;;;;;14.38;52.18;101314.03;5053759;28;20028;-71
2022/05/30 10:57:19;;;;;;;3.47;2.00;;;;;;;14.42;51.83;101312.59;5070621;28;20035;-71
2022/05/30 10:59:48;;;;;;;3.67;2.20;;;;;;;14.35;49.63;101312.59;5049370;28;20057;-71
2022/05/30 11:02:33;;;;;;;5.30;2.20;;;;;;;14.37;50.53;101307.84;5051538;28;20032;-71
2022/05/30 11:05:08;;;;;;;2.80;2.42;;;;;;;14.29;51.76;101308.06;5051676;28;20112;-71
2022/05/30 11:07:36;;;;;;;4.80;2.00;;;;;;;14.36;51.56;101306.19;5052299;28;20025;-72
2022/05/30 11:10:01;;;;;;;3.20;1.98;;;;;;;14.48;49.58;101312.53;5051536;28;20017;-71
2022/05/30 11:12:31;;;;;;;4.87;2.47;;;;;;;14.44;50.87;101305.97;5051515;28;20036;-71
2022/05/30 11:15:35;;;;;;;4.95;2.60;;;;;;;14.53;49.84;101297.72;5056981;28;20397;-71
2022/05/30 11:18:25;;;;;;;5.47;2.25;;;;;;;14.93;49.68;101305.59;4987128;28;20065;-71
2022/05/30 11:21:28;;;;;;;6.57;2.45;;;;;;;15.37;46.50;101302.03;4987737;28;20550;-72
2022/05/30 11:23:54;;;;;;;3.33;2.35;;;;;;;15.60;48.27;101306.00;4979539;28;20480;-71
2022/05/30 11:26:44;;;;;;;5.93;2.83;;;;;;;15.78;46.21;101298.03;5047918;28;20041;-71
2022/05/30 11:29:20;;;;;;;6.05;2.38;;;;;;;16.02;44.89;101300.91;5059524;28;20032;-71
2022/05/30 11:32:10;;;;;;;4.07;1.92;;;;;;;16.19;43.09;101293.91;5069120;28;20027;-71
2022/05/30 11:34:43;;;;;;;3.47;1.75;;;;;;;16.27;44.74;101290.94;5069206;28;20480;-72
2022/05/30 11:37:46;;;;;;;4.45;2.20;;;;;;;16.36;47.27;101286.06;5069953;28;20067;-72
2022/05/30 11:40:21;;;;;;;3.38;2.35;;;;;;;16.18;47.14;101289.56;5070061;28;20384;-72
2022/05/30 11:43:14;;;;;;;2.00;1.80;;;;;;;15.94;48.19;101291.25;5070070;28;20028;-71
2022/05/30 11:45:50;;;;;;;4.85;2.45;;;;;;;15.74;47.67;101294.13;5051996;28;20502;-72
2022/05/30 11:48:36;;;;;;;4.25;1.98;;;;;;;15.57;51.34;101299.22;5064302;28;20027;-71
2022/05/30 11:51:38;;;;;;;4.55;2.20;;;;;;;15.34;47.98;101284.47;5068847;28;20055;-72
2022/05/30 11:54:42;;;;;;;1.73;1.63;;;;;;;15.09;46.75;101297.03;5060460;28;20020;-69